sensor_id;sensor_type;location;lat;lon;timestamp;P1;durP1;ratioP1;P2;durP2;ratioP2
17965;SDS011;9108;53.204;10.424;2023-07-16T00:00:45;2.35;;;1.10;;
17965;SDS011;9108;53.204;10.424;2023-07-16T00:03:13;2.72;;;1.00;;
17965;SDS011;9108;53.204;10.424;2023-07-16T00:05:40;3.60;;;1.20;;
17965;SDS011;9108;53.204;10.424;2023-07-16T00:08:07;2.53;;;1.27;;
17965;SDS011;9108;53.204;10.424;2023-07-16T00:10:34;2.83;;;1.00;;
17965;SDS011;9108;53.204;10.424;2023-07-16T00:13:01;3.33;;;1.00;;
17965;SDS011;9108;53.204;10.424;2023-07-16T00:15:30;1.83;;;0.95;;
17965;SDS011;9108;53.204;10.424;2023-07-16T00:17:57;3.43;;;1.30;;
17965;SDS011;9108;53.204;10.424;2023-07-16T00:20:24;3.60;;;1.10;;
17965;SDS011;9108;53.204;10.424;2023-07-16T00:22:51;4.13;;;1.20;;
17965;SDS011;9108;53.204;10.424;2023-07-16T00:25:18;2.10;;;1.00;;
17965;SDS011;9108;53.204;10.424;2023-07-16T00:27:46;3.33;;;1.20;;
17965;SDS011;9108;53.204;10.424;2023-07-16T00:30:13;2.22;;;1.27;;
17965;SDS011;9108;53.204;10.424;2023-07-16T00:32:41;6.20;;;1.40;;
17965;SDS011;9108;53.204;10.424;2023-07-16T00:35:08;3.67;;;1.10;;
17965;SDS011;9108;53.204;10.424;2023-07-16T00:37:36;3.72;;;1.23;;
17965;SDS011;9108;53.204;10.424;2023-07-16T00:40:03;2.97;;;1.10;;
17965;SDS011;9108;53.204;10.424;2023-07-16T00:42:31;2.67;;;1.10;;
17965;SDS011;9108;53.204;10.424;2023-07-16T00:44:58;2.97;;;1.20;;
17965;SDS011;9108;53.204;10.424;2023-07-16T00:47:25;2.53;;;1.08;;
17965;SDS011;9108;53.204;10.424;2023-07-16T00:49:53;1.92;;;1.00;;
17965;SDS011;9108;53.204;10.424;2023-07-16T00:52:21;4.25;;;1.10;;
17965;SDS011;9108;53.204;10.424;2023-07-16T00:54:49;2.45;;;0.90;;
17965;SDS011;9108;53.204;10.424;2023-07-16T00:57:16;2.72;;;1.15;;
17965;SDS011;9108;53.204;10.424;2023-07-16T00:59:43;2.83;;;1.10;;
17965;SDS011;9108;53.204;10.424;2023-07-16T01:02:10;2.00;;;1.10;;
17965;SDS011;9108;53.204;10.424;2023-07-16T01:04:38;2.60;;;1.03;;
17965;SDS011;9108;53.204;10.424;2023-07-16T01:07:06;3.95;;;1.00;;
17965;SDS011;9108;53.204;10.424;2023-07-16T01:09:35;3.72;;;1.10;;
17965;SDS011;9108;53.204;10.424;2023-07-16T01:12:04;3.33;;;1.20;;
17965;SDS011;9108;53.204;10.424;2023-07-16T01:14:31;3.15;;;1.17;;
17965;SDS011;9108;53.204;10.424;2023-07-16T01:17:02;2.47;;;1.10;;
17965;SDS011;9108;53.204;10.424;2023-07-16T01:19:29;2.17;;;1.10;;
17965;SDS011;9108;53.204;10.424;2023-07-16T01:21:57;3.38;;;1.10;;
17965;SDS011;9108;53.204;10.424;2023-07-16T01:24:43;2.67;;;1.00;;
17965;SDS011;9108;53.204;10.424;2023-07-16T01:27:17;3.33;;;1.15;;
17965;SDS011;9108;53.204;10.424;2023-07-16T01:29:47;3.63;;;1.13;;
17965;SDS011;9108;53.204;10.424;2023-07-16T01:32:16;2.72;;;1.30;;
17965;SDS011;9108;53.204;10.424;2023-07-16T01:34:44;4.93;;;1.27;;
17965;SDS011;9108;53.204;10.424;2023-07-16T01:37:11;3.65;;;1.20;;
17965;SDS011;9108;53.204;10.424;2023-07-16T01:39:38;2.65;;;1.20;;
17965;SDS011;9108;53.204;10.424;2023-07-16T01:42:06;5.20;;;1.25;;
17965;SDS011;9108;53.204;10.424;2023-07-16T01:44:33;2.47;;;1.30;;
17965;SDS011;9108;53.204;10.424;2023-07-16T01:47:05;3.28;;;1.30;;
17965;SDS011;9108;53.204;10.424;2023-07-16T01:49:32;3.33;;;1.23;;
17965;SDS011;9108;53.204;10.424;2023-07-16T01:52:00;3.72;;;1.30;;
17965;SDS011;9108;53.204;10.424;2023-07-16T01:54:28;2.63;;;1.20;;
17965;SDS011;9108;53.204;10.424;2023-07-16T01:56:55;2.78;;;1.20;;
17965;SDS011;9108;53.204;10.424;2023-07-16T01:59:22;3.38;;;1.20;;
17965;SDS011;9108;53.204;10.424;2023-07-16T02:01:49;4.35;;;1.40;;
17965;SDS011;9108;53.204;10.424;2023-07-16T02:04:17;4.57;;;1.40;;
17965;SDS011;9108;53.204;10.424;2023-07-16T02:06:45;2.70;;;1.30;;
17965;SDS011;9108;53.204;10.424;2023-07-16T02:09:13;3.50;;;1.17;;
17965;SDS011;9108;53.204;10.424;2023-07-16T02:11:40;2.92;;;1.30;;
17965;SDS011;9108;53.204;10.424;2023-07-16T02:14:07;4.17;;;1.10;;
17965;SDS011;9108;53.204;10.424;2023-07-16T02:16:34;4.40;;;1.20;;
17965;SDS011;9108;53.204;10.424;2023-07-16T02:19:01;2.90;;;1.30;;
17965;SDS011;9108;53.204;10.424;2023-07-16T02:21:30;3.88;;;1.60;;
17965;SDS011;9108;53.204;10.424;2023-07-16T02:23:57;3.28;;;1.15;;
17965;SDS011;9108;53.204;10.424;2023-07-16T02:26:24;2.95;;;1.38;;
17965;SDS011;9108;53.204;10.424;2023-07-16T02:28:51;2.55;;;1.13;;
17965;SDS011;9108;53.204;10.424;2023-07-16T02:31:18;3.43;;;1.50;;
17965;SDS011;9108;53.204;10.424;2023-07-16T02:33:46;3.65;;;1.27;;
17965;SDS011;9108;53.204;10.424;2023-07-16T02:36:13;5.78;;;1.40;;
17965;SDS011;9108;53.204;10.424;2023-07-16T02:38:41;3.70;;;1.25;;
17965;SDS011;9108;53.204;10.424;2023-07-16T02:41:08;4.32;;;1.40;;
17965;SDS011;9108;53.204;10.424;2023-07-16T02:43:35;6.32;;;1.60;;
17965;SDS011;9108;53.204;10.424;2023-07-16T02:46:03;4.78;;;1.50;;
17965;SDS011;9108;53.204;10.424;2023-07-16T02:48:30;4.80;;;1.60;;
17965;SDS011;9108;53.204;10.424;2023-07-16T02:50:57;5.10;;;1.42;;
17965;SDS011;9108;53.204;10.424;2023-07-16T02:53:24;4.82;;;1.80;;
17965;SDS011;9108;53.204;10.424;2023-07-16T02:55:52;4.57;;;1.42;;
17965;SDS011;9108;53.204;10.424;2023-07-16T02:58:20;4.00;;;1.52;;
17965;SDS011;9108;53.204;10.424;2023-07-16T03:00:47;4.70;;;1.63;;
17965;SDS011;9108;53.204;10.424;2023-07-16T03:03:14;6.35;;;1.70;;
17965;SDS011;9108;53.204;10.424;2023-07-16T03:05:41;5.85;;;1.70;;
17965;SDS011;9108;53.204;10.424;2023-07-16T03:08:08;3.53;;;1.70;;
17965;SDS011;9108;53.204;10.424;2023-07-16T03:10:35;5.22;;;1.80;;
17965;SDS011;9108;53.204;10.424;2023-07-16T03:13:04;5.18;;;1.80;;
17965;SDS011;9108;53.204;10.424;2023-07-16T03:15:31;4.20;;;1.77;;
17965;SDS011;9108;53.204;10.424;2023-07-16T03:17:58;4.35;;;1.70;;
17965;SDS011;9108;53.204;10.424;2023-07-16T03:20:25;5.25;;;1.80;;
17965;SDS011;9108;53.204;10.424;2023-07-16T03:22:52;4.57;;;1.77;;
17965;SDS011;9108;53.204;10.424;2023-07-16T03:25:19;4.70;;;2.00;;
17965;SDS011;9108;53.204;10.424;2023-07-16T03:27:46;7.18;;;2.00;;
17965;SDS011;9108;53.204;10.424;2023-07-16T03:30:15;6.43;;;2.00;;
17965;SDS011;9108;53.204;10.424;2023-07-16T03:32:42;5.28;;;1.90;;
17965;SDS011;9108;53.204;10.424;2023-07-16T03:35:09;5.47;;;2.00;;
17965;SDS011;9108;53.204;10.424;2023-07-16T03:37:36;6.28;;;1.90;;
17965;SDS011;9108;53.204;10.424;2023-07-16T03:40:12;3.95;;;1.90;;
17965;SDS011;9108;53.204;10.424;2023-07-16T03:42:39;7.72;;;2.25;;
17965;SDS011;9108;53.204;10.424;2023-07-16T03:45:07;5.80;;;2.15;;
17965;SDS011;9108;53.204;10.424;2023-07-16T03:47:35;4.43;;;1.85;;
17965;SDS011;9108;53.204;10.424;2023-07-16T03:50:03;5.95;;;2.00;;
17965;SDS011;9108;53.204;10.424;2023-07-16T03:52:30;5.17;;;2.00;;
17965;SDS011;9108;53.204;10.424;2023-07-16T03:54:57;4.43;;;2.05;;
17965;SDS011;9108;53.204;10.424;2023-07-16T03:57:24;6.18;;;2.30;;
17965;SDS011;9108;53.204;10.424;2023-07-16T03:59:51;5.18;;;1.98;;
17965;SDS011;9108;53.204;10.424;2023-07-16T04:02:18;5.10;;;2.15;;
17965;SDS011;9108;53.204;10.424;2023-07-16T04:04:47;6.55;;;2.20;;
17965;SDS011;9108;53.204;10.424;2023-07-16T04:07:15;5.70;;;2.10;;
17965;SDS011;9108;53.204;10.424;2023-07-16T04:09:42;9.15;;;2.30;;
17965;SDS011;9108;53.204;10.424;2023-07-16T04:12:09;6.03;;;2.10;;
17965;SDS011;9108;53.204;10.424;2023-07-16T04:14:36;6.23;;;2.00;;
17965;SDS011;9108;53.204;10.424;2023-07-16T04:17:03;4.82;;;2.20;;
17965;SDS011;9108;53.204;10.424;2023-07-16T04:19:31;7.10;;;2.15;;
17965;SDS011;9108;53.204;10.424;2023-07-16T04:21:59;6.15;;;2.40;;
17965;SDS011;9108;53.204;10.424;2023-07-16T04:24:27;4.93;;;2.20;;
17965;SDS011;9108;53.204;10.424;2023-07-16T04:26:54;5.95;;;2.20;;
17965;SDS011;9108;53.204;10.424;2023-07-16T04:29:21;5.95;;;2.00;;
17965;SDS011;9108;53.204;10.424;2023-07-16T04:31:48;7.73;;;2.10;;
17965;SDS011;9108;53.204;10.424;2023-07-16T04:34:15;6.15;;;2.33;;
17965;SDS011;9108;53.204;10.424;2023-07-16T04:36:42;7.03;;;2.30;;
17965;SDS011;9108;53.204;10.424;2023-07-16T04:39:11;4.40;;;2.10;;
17965;SDS011;9108;53.204;10.424;2023-07-16T04:41:38;6.05;;;2.30;;
17965;SDS011;9108;53.204;10.424;2023-07-16T04:44:05;5.68;;;2.17;;
17965;SDS011;9108;53.204;10.424;2023-07-16T04:46:32;5.18;;;2.28;;
17965;SDS011;9108;53.204;10.424;2023-07-16T04:49:00;5.60;;;2.45;;
17965;SDS011;9108;53.204;10.424;2023-07-16T04:51:27;8.25;;;2.10;;
17965;SDS011;9108;53.204;10.424;2023-07-16T04:53:54;5.13;;;2.07;;
17965;SDS011;9108;53.204;10.424;2023-07-16T04:56:23;5.18;;;1.90;;
17965;SDS011;9108;53.204;10.424;2023-07-16T04:58:50;4.88;;;2.20;;
17965;SDS011;9108;53.204;10.424;2023-07-16T05:01:17;4.70;;;2.00;;
17965;SDS011;9108;53.204;10.424;2023-07-16T05:03:45;4.82;;;1.92;;
17965;SDS011;9108;53.204;10.424;2023-07-16T05:06:12;4.80;;;1.92;;
17965;SDS011;9108;53.204;10.424;2023-07-16T05:08:39;5.03;;;2.00;;
17965;SDS011;9108;53.204;10.424;2023-07-16T05:11:07;4.88;;;1.90;;
17965;SDS011;9108;53.204;10.424;2023-07-16T05:13:35;6.43;;;1.90;;
17965;SDS011;9108;53.204;10.424;2023-07-16T05:16:02;4.70;;;1.60;;
17965;SDS011;9108;53.204;10.424;2023-07-16T05:18:30;3.95;;;1.58;;
17965;SDS011;9108;53.204;10.424;2023-07-16T05:20:57;3.80;;;1.60;;
17965;SDS011;9108;53.204;10.424;2023-07-16T05:23:24;4.15;;;1.60;;
17965;SDS011;9108;53.204;10.424;2023-07-16T05:25:52;4.43;;;1.70;;
17965;SDS011;9108;53.204;10.424;2023-07-16T05:28:19;4.63;;;1.50;;
17965;SDS011;9108;53.204;10.424;2023-07-16T05:30:47;4.90;;;1.63;;
17965;SDS011;9108;53.204;10.424;2023-07-16T05:33:14;4.22;;;1.50;;
17965;SDS011;9108;53.204;10.424;2023-07-16T05:35:42;4.47;;;1.55;;
17965;SDS011;9108;53.204;10.424;2023-07-16T05:38:09;5.53;;;1.70;;
17965;SDS011;9108;53.204;10.424;2023-07-16T05:40:36;5.10;;;1.60;;
17965;SDS011;9108;53.204;10.424;2023-07-16T05:43:03;5.40;;;1.70;;
17965;SDS011;9108;53.204;10.424;2023-07-16T05:45:30;4.70;;;1.65;;
17965;SDS011;9108;53.204;10.424;2023-07-16T05:47:59;6.35;;;1.63;;
17965;SDS011;9108;53.204;10.424;2023-07-16T05:50:26;4.13;;;1.67;;
17965;SDS011;9108;53.204;10.424;2023-07-16T05:52:53;3.60;;;1.70;;
17965;SDS011;9108;53.204;10.424;2023-07-16T05:55:20;4.63;;;1.77;;
17965;SDS011;9108;53.204;10.424;2023-07-16T05:57:47;4.72;;;1.70;;
17965;SDS011;9108;53.204;10.424;2023-07-16T06:00:14;4.70;;;1.60;;
17965;SDS011;9108;53.204;10.424;2023-07-16T06:02:42;3.47;;;1.60;;
17965;SDS011;9108;53.204;10.424;2023-07-16T06:05:10;4.65;;;1.63;;
17965;SDS011;9108;53.204;10.424;2023-07-16T06:07:37;4.90;;;1.60;;
17965;SDS011;9108;53.204;10.424;2023-07-16T06:10:05;4.72;;;1.60;;
17965;SDS011;9108;53.204;10.424;2023-07-16T06:12:33;3.80;;;1.73;;
17965;SDS011;9108;53.204;10.424;2023-07-16T06:15:00;5.25;;;1.60;;
17965;SDS011;9108;53.204;10.424;2023-07-16T06:17:27;3.55;;;1.70;;
17965;SDS011;9108;53.204;10.424;2023-07-16T06:19:54;6.07;;;1.80;;
17965;SDS011;9108;53.204;10.424;2023-07-16T06:22:24;5.32;;;1.90;;
17965;SDS011;9108;53.204;10.424;2023-07-16T06:24:51;5.50;;;1.60;;
17965;SDS011;9108;53.204;10.424;2023-07-16T06:27:18;4.03;;;1.85;;
17965;SDS011;9108;53.204;10.424;2023-07-16T06:29:45;4.53;;;1.60;;
17965;SDS011;9108;53.204;10.424;2023-07-16T06:32:12;5.40;;;1.60;;
17965;SDS011;9108;53.204;10.424;2023-07-16T06:34:40;7.90;;;1.92;;
17965;SDS011;9108;53.204;10.424;2023-07-16T06:37:07;4.32;;;1.63;;
17965;SDS011;9108;53.204;10.424;2023-07-16T06:39:35;4.47;;;1.88;;
17965;SDS011;9108;53.204;10.424;2023-07-16T06:42:02;6.18;;;1.75;;
17965;SDS011;9108;53.204;10.424;2023-07-16T06:44:30;5.38;;;1.85;;
17965;SDS011;9108;53.204;10.424;2023-07-16T06:46:57;5.70;;;1.90;;
17965;SDS011;9108;53.204;10.424;2023-07-16T06:49:24;5.85;;;1.80;;
17965;SDS011;9108;53.204;10.424;2023-07-16T06:51:51;5.60;;;1.92;;
17965;SDS011;9108;53.204;10.424;2023-07-16T06:54:18;6.88;;;1.83;;
17965;SDS011;9108;53.204;10.424;2023-07-16T06:56:47;5.28;;;1.80;;
17965;SDS011;9108;53.204;10.424;2023-07-16T06:59:14;5.18;;;1.92;;
17965;SDS011;9108;53.204;10.424;2023-07-16T07:01:41;6.20;;;2.00;;
17965;SDS011;9108;53.204;10.424;2023-07-16T07:04:08;7.18;;;1.98;;
17965;SDS011;9108;53.204;10.424;2023-07-16T07:06:35;6.80;;;2.10;;
17965;SDS011;9108;53.204;10.424;2023-07-16T07:09:02;4.60;;;1.90;;
17965;SDS011;9108;53.204;10.424;2023-07-16T07:11:30;5.50;;;2.00;;
17965;SDS011;9108;53.204;10.424;2023-07-16T07:13:58;5.35;;;1.90;;
17965;SDS011;9108;53.204;10.424;2023-07-16T07:16:25;4.97;;;2.25;;
17965;SDS011;9108;53.204;10.424;2023-07-16T07:18:52;5.10;;;2.00;;
17965;SDS011;9108;53.204;10.424;2023-07-16T07:21:20;4.43;;;2.10;;
17965;SDS011;9108;53.204;10.424;2023-07-16T07:23:47;5.57;;;2.10;;
17965;SDS011;9108;53.204;10.424;2023-07-16T07:26:14;6.07;;;2.15;;
17965;SDS011;9108;53.204;10.424;2023-07-16T07:28:41;6.55;;;2.15;;
17965;SDS011;9108;53.204;10.424;2023-07-16T07:31:09;6.13;;;2.10;;
17965;SDS011;9108;53.204;10.424;2023-07-16T07:33:36;4.55;;;1.75;;
17965;SDS011;9108;53.204;10.424;2023-07-16T07:36:04;7.03;;;2.23;;
17965;SDS011;9108;53.204;10.424;2023-07-16T07:38:31;5.25;;;1.70;;
17965;SDS011;9108;53.204;10.424;2023-07-16T07:40:58;6.47;;;1.88;;
17965;SDS011;9108;53.204;10.424;2023-07-16T07:43:25;5.22;;;1.80;;
17965;SDS011;9108;53.204;10.424;2023-07-16T07:45:52;5.57;;;1.65;;
17965;SDS011;9108;53.204;10.424;2023-07-16T07:48:20;5.83;;;1.93;;
17965;SDS011;9108;53.204;10.424;2023-07-16T07:50:48;6.88;;;2.00;;
17965;SDS011;9108;53.204;10.424;2023-07-16T07:53:15;5.85;;;1.77;;
17965;SDS011;9108;53.204;10.424;2023-07-16T07:55:44;6.05;;;2.00;;
17965;SDS011;9108;53.204;10.424;2023-07-16T07:58:11;6.87;;;1.93;;
17965;SDS011;9108;53.204;10.424;2023-07-16T08:00:38;5.88;;;1.83;;
17965;SDS011;9108;53.204;10.424;2023-07-16T08:03:05;6.47;;;1.80;;
17965;SDS011;9108;53.204;10.424;2023-07-16T08:05:34;6.60;;;1.90;;
17965;SDS011;9108;53.204;10.424;2023-07-16T08:08:01;8.00;;;1.90;;
17965;SDS011;9108;53.204;10.424;2023-07-16T08:10:28;4.88;;;1.88;;
17965;SDS011;9108;53.204;10.424;2023-07-16T08:12:55;7.40;;;1.83;;
17965;SDS011;9108;53.204;10.424;2023-07-16T08:15:22;6.20;;;2.03;;
17965;SDS011;9108;53.204;10.424;2023-07-16T08:17:50;6.77;;;1.70;;
17965;SDS011;9108;53.204;10.424;2023-07-16T08:20:17;6.18;;;1.80;;
17965;SDS011;9108;53.204;10.424;2023-07-16T08:22:45;6.88;;;2.10;;
17965;SDS011;9108;53.204;10.424;2023-07-16T08:25:12;4.77;;;1.87;;
17965;SDS011;9108;53.204;10.424;2023-07-16T08:27:40;7.65;;;2.10;;
17965;SDS011;9108;53.204;10.424;2023-07-16T08:30:07;7.03;;;2.20;;
17965;SDS011;9108;53.204;10.424;2023-07-16T08:32:35;6.70;;;2.05;;
17965;SDS011;9108;53.204;10.424;2023-07-16T08:35:02;5.97;;;2.10;;
17965;SDS011;9108;53.204;10.424;2023-07-16T08:37:29;6.75;;;2.33;;
17965;SDS011;9108;53.204;10.424;2023-07-16T08:39:58;6.63;;;2.10;;
17965;SDS011;9108;53.204;10.424;2023-07-16T08:42:25;7.32;;;2.03;;
17965;SDS011;9108;53.204;10.424;2023-07-16T08:44:52;7.18;;;2.25;;
17965;SDS011;9108;53.204;10.424;2023-07-16T08:47:20;7.95;;;2.20;;
17965;SDS011;9108;53.204;10.424;2023-07-16T08:49:49;4.75;;;2.00;;
17965;SDS011;9108;53.204;10.424;2023-07-16T08:52:17;5.97;;;2.15;;
17965;SDS011;9108;53.204;10.424;2023-07-16T08:54:45;6.53;;;2.30;;
17965;SDS011;9108;53.204;10.424;2023-07-16T08:57:14;5.93;;;2.00;;
17965;SDS011;9108;53.204;10.424;2023-07-16T08:59:41;5.55;;;2.20;;
17965;SDS011;9108;53.204;10.424;2023-07-16T09:02:09;6.15;;;2.25;;
17965;SDS011;9108;53.204;10.424;2023-07-16T09:04:36;5.47;;;1.98;;
17965;SDS011;9108;53.204;10.424;2023-07-16T09:07:04;6.50;;;2.00;;
17965;SDS011;9108;53.204;10.424;2023-07-16T09:09:31;4.65;;;1.90;;
17965;SDS011;9108;53.204;10.424;2023-07-16T09:11:58;8.45;;;2.25;;
17965;SDS011;9108;53.204;10.424;2023-07-16T09:14:27;7.63;;;2.10;;
17965;SDS011;9108;53.204;10.424;2023-07-16T09:16:54;7.00;;;2.20;;
17965;SDS011;9108;53.204;10.424;2023-07-16T09:19:21;7.25;;;2.13;;
17965;SDS011;9108;53.204;10.424;2023-07-16T09:21:49;6.88;;;2.35;;
17965;SDS011;9108;53.204;10.424;2023-07-16T09:24:17;8.38;;;2.25;;
17965;SDS011;9108;53.204;10.424;2023-07-16T09:26:47;7.78;;;2.42;;
17965;SDS011;9108;53.204;10.424;2023-07-16T09:29:15;7.43;;;2.30;;
17965;SDS011;9108;53.204;10.424;2023-07-16T09:31:53;7.32;;;2.33;;
17965;SDS011;9108;53.204;10.424;2023-07-16T09:34:21;6.90;;;2.50;;
17965;SDS011;9108;53.204;10.424;2023-07-16T09:36:48;7.93;;;2.30;;
17965;SDS011;9108;53.204;10.424;2023-07-16T09:39:16;6.68;;;2.30;;
17965;SDS011;9108;53.204;10.424;2023-07-16T09:41:44;7.37;;;2.40;;
17965;SDS011;9108;53.204;10.424;2023-07-16T09:44:11;6.55;;;2.30;;
17965;SDS011;9108;53.204;10.424;2023-07-16T09:46:39;6.28;;;2.50;;
17965;SDS011;9108;53.204;10.424;2023-07-16T09:49:07;8.00;;;2.90;;
17965;SDS011;9108;53.204;10.424;2023-07-16T09:51:35;7.47;;;2.83;;
17965;SDS011;9108;53.204;10.424;2023-07-16T09:54:03;7.45;;;2.72;;
17965;SDS011;9108;53.204;10.424;2023-07-16T09:56:31;6.35;;;2.63;;
17965;SDS011;9108;53.204;10.424;2023-07-16T09:59:00;7.67;;;2.70;;
17965;SDS011;9108;53.204;10.424;2023-07-16T10:01:28;7.17;;;2.87;;
17965;SDS011;9108;53.204;10.424;2023-07-16T10:03:55;7.63;;;2.67;;
17965;SDS011;9108;53.204;10.424;2023-07-16T10:06:24;7.88;;;2.80;;
17965;SDS011;9108;53.204;10.424;2023-07-16T10:08:51;8.60;;;2.80;;
17965;SDS011;9108;53.204;10.424;2023-07-16T10:11:18;5.72;;;2.60;;
17965;SDS011;9108;53.204;10.424;2023-07-16T10:13:48;5.68;;;2.88;;
17965;SDS011;9108;53.204;10.424;2023-07-16T10:16:19;11.35;;;3.05;;
17965;SDS011;9108;53.204;10.424;2023-07-16T10:18:50;7.05;;;2.90;;
17965;SDS011;9108;53.204;10.424;2023-07-16T10:21:22;8.27;;;3.15;;
17965;SDS011;9108;53.204;10.424;2023-07-16T10:23:56;9.95;;;3.35;;
17965;SDS011;9108;53.204;10.424;2023-07-16T10:26:26;7.28;;;2.90;;
17965;SDS011;9108;53.204;10.424;2023-07-16T10:28:53;8.18;;;3.08;;
17965;SDS011;9108;53.204;10.424;2023-07-16T10:31:21;7.03;;;2.90;;
17965;SDS011;9108;53.204;10.424;2023-07-16T10:33:58;10.10;;;3.00;;
17965;SDS011;9108;53.204;10.424;2023-07-16T10:36:25;8.25;;;3.00;;
17965;SDS011;9108;53.204;10.424;2023-07-16T10:38:54;10.52;;;3.13;;
17965;SDS011;9108;53.204;10.424;2023-07-16T10:41:21;9.95;;;3.17;;
17965;SDS011;9108;53.204;10.424;2023-07-16T10:43:49;8.20;;;2.88;;
17965;SDS011;9108;53.204;10.424;2023-07-16T10:46:16;8.57;;;2.90;;
17965;SDS011;9108;53.204;10.424;2023-07-16T10:48:45;5.28;;;2.50;;
17965;SDS011;9108;53.204;10.424;2023-07-16T10:51:13;9.27;;;3.05;;
17965;SDS011;9108;53.204;10.424;2023-07-16T10:53:41;6.80;;;2.88;;
17965;SDS011;9108;53.204;10.424;2023-07-16T10:56:09;6.57;;;3.00;;
17965;SDS011;9108;53.204;10.424;2023-07-16T10:58:36;7.30;;;3.10;;
17965;SDS011;9108;53.204;10.424;2023-07-16T11:01:07;9.40;;;3.00;;
17965;SDS011;9108;53.204;10.424;2023-07-16T11:03:34;8.53;;;3.07;;
17965;SDS011;9108;53.204;10.424;2023-07-16T11:06:05;8.52;;;3.00;;
17965;SDS011;9108;53.204;10.424;2023-07-16T11:08:44;7.93;;;3.00;;
17965;SDS011;9108;53.204;10.424;2023-07-16T11:11:15;8.50;;;3.00;;
17965;SDS011;9108;53.204;10.424;2023-07-16T11:13:45;8.65;;;2.80;;
17965;SDS011;9108;53.204;10.424;2023-07-16T11:16:15;8.00;;;2.97;;
17965;SDS011;9108;53.204;10.424;2023-07-16T11:18:43;8.60;;;3.17;;
17965;SDS011;9108;53.204;10.424;2023-07-16T11:21:19;7.65;;;3.13;;
17965;SDS011;9108;53.204;10.424;2023-07-16T11:23:48;6.60;;;3.10;;
17965;SDS011;9108;53.204;10.424;2023-07-16T11:26:22;6.95;;;2.90;;
17965;SDS011;9108;53.204;10.424;2023-07-16T11:28:55;7.80;;;3.20;;
17965;SDS011;9108;53.204;10.424;2023-07-16T11:31:22;8.57;;;3.08;;
17965;SDS011;9108;53.204;10.424;2023-07-16T11:33:50;6.47;;;3.00;;
17965;SDS011;9108;53.204;10.424;2023-07-16T11:36:20;7.88;;;2.83;;
17965;SDS011;9108;53.204;10.424;2023-07-16T11:38:48;7.37;;;2.90;;
17965;SDS011;9108;53.204;10.424;2023-07-16T11:41:15;7.87;;;3.00;;
17965;SDS011;9108;53.204;10.424;2023-07-16T11:43:47;8.98;;;2.85;;
17965;SDS011;9108;53.204;10.424;2023-07-16T11:46:15;8.95;;;3.05;;
17965;SDS011;9108;53.204;10.424;2023-07-16T11:48:42;7.50;;;3.00;;
17965;SDS011;9108;53.204;10.424;2023-07-16T11:51:10;6.93;;;3.17;;
17965;SDS011;9108;53.204;10.424;2023-07-16T11:53:37;7.00;;;2.70;;
17965;SDS011;9108;53.204;10.424;2023-07-16T11:56:10;6.85;;;3.03;;
17965;SDS011;9108;53.204;10.424;2023-07-16T11:58:42;7.53;;;2.72;;
17965;SDS011;9108;53.204;10.424;2023-07-16T12:01:12;7.35;;;2.80;;
17965;SDS011;9108;53.204;10.424;2023-07-16T12:03:40;8.43;;;2.78;;
17965;SDS011;9108;53.204;10.424;2023-07-16T12:06:08;5.47;;;2.42;;
17965;SDS011;9108;53.204;10.424;2023-07-16T12:08:35;6.35;;;2.72;;
17965;SDS011;9108;53.204;10.424;2023-07-16T12:11:02;6.55;;;2.78;;
17965;SDS011;9108;53.204;10.424;2023-07-16T12:13:29;10.65;;;2.60;;
17965;SDS011;9108;53.204;10.424;2023-07-16T12:15:56;9.27;;;2.92;;
17965;SDS011;9108;53.204;10.424;2023-07-16T12:18:25;6.75;;;2.60;;
17965;SDS011;9108;53.204;10.424;2023-07-16T12:20:52;7.57;;;2.77;;
17965;SDS011;9108;53.204;10.424;2023-07-16T12:23:19;7.50;;;2.80;;
17965;SDS011;9108;53.204;10.424;2023-07-16T12:25:46;5.80;;;2.70;;
17965;SDS011;9108;53.204;10.424;2023-07-16T12:28:14;6.47;;;2.50;;
17965;SDS011;9108;53.204;10.424;2023-07-16T12:30:41;6.20;;;2.58;;
17965;SDS011;9108;53.204;10.424;2023-07-16T12:33:08;5.47;;;2.40;;
17965;SDS011;9108;53.204;10.424;2023-07-16T12:35:37;6.88;;;2.50;;
17965;SDS011;9108;53.204;10.424;2023-07-16T12:38:04;8.07;;;2.60;;
17965;SDS011;9108;53.204;10.424;2023-07-16T12:40:31;8.43;;;2.50;;
17965;SDS011;9108;53.204;10.424;2023-07-16T12:43:04;8.60;;;2.85;;
17965;SDS011;9108;53.204;10.424;2023-07-16T12:45:31;8.27;;;2.60;;
17965;SDS011;9108;53.204;10.424;2023-07-16T12:47:59;6.93;;;2.55;;
17965;SDS011;9108;53.204;10.424;2023-07-16T12:50:26;8.73;;;2.70;;
17965;SDS011;9108;53.204;10.424;2023-07-16T12:52:55;6.25;;;2.28;;
17965;SDS011;9108;53.204;10.424;2023-07-16T12:55:23;5.43;;;2.40;;
17965;SDS011;9108;53.204;10.424;2023-07-16T12:57:50;5.72;;;2.60;;
17965;SDS011;9108;53.204;10.424;2023-07-16T13:00:17;6.70;;;2.63;;
17965;SDS011;9108;53.204;10.424;2023-07-16T13:02:44;4.68;;;2.30;;
17965;SDS011;9108;53.204;10.424;2023-07-16T13:05:12;6.55;;;2.60;;
17965;SDS011;9108;53.204;10.424;2023-07-16T13:07:41;5.70;;;2.80;;
17965;SDS011;9108;53.204;10.424;2023-07-16T13:10:09;8.00;;;2.47;;
17965;SDS011;9108;53.204;10.424;2023-07-16T13:12:37;10.50;;;2.42;;
17965;SDS011;9108;53.204;10.424;2023-07-16T13:15:04;6.45;;;2.60;;
17965;SDS011;9108;53.204;10.424;2023-07-16T13:17:32;6.10;;;2.50;;
17965;SDS011;9108;53.204;10.424;2023-07-16T13:20:02;7.45;;;2.67;;
17965;SDS011;9108;53.204;10.424;2023-07-16T13:22:30;4.78;;;2.38;;
17965;SDS011;9108;53.204;10.424;2023-07-16T13:24:59;6.18;;;2.40;;
17965;SDS011;9108;53.204;10.424;2023-07-16T13:27:28;6.93;;;2.37;;
17965;SDS011;9108;53.204;10.424;2023-07-16T13:29:55;7.10;;;2.40;;
17965;SDS011;9108;53.204;10.424;2023-07-16T13:32:22;7.82;;;2.50;;
17965;SDS011;9108;53.204;10.424;2023-07-16T13:34:49;12.32;;;2.80;;
17965;SDS011;9108;53.204;10.424;2023-07-16T13:37:16;5.85;;;2.60;;
17965;SDS011;9108;53.204;10.424;2023-07-16T13:39:43;7.00;;;2.40;;
17965;SDS011;9108;53.204;10.424;2023-07-16T13:42:10;5.90;;;2.25;;
17965;SDS011;9108;53.204;10.424;2023-07-16T13:44:39;7.63;;;2.50;;
17965;SDS011;9108;53.204;10.424;2023-07-16T13:47:06;5.53;;;2.47;;
17965;SDS011;9108;53.204;10.424;2023-07-16T13:49:34;5.68;;;2.17;;
17965;SDS011;9108;53.204;10.424;2023-07-16T13:52:01;6.28;;;2.30;;
17965;SDS011;9108;53.204;10.424;2023-07-16T13:54:28;6.40;;;2.40;;
17965;SDS011;9108;53.204;10.424;2023-07-16T13:56:55;7.03;;;2.70;;
17965;SDS011;9108;53.204;10.424;2023-07-16T13:59:22;6.95;;;2.60;;
17965;SDS011;9108;53.204;10.424;2023-07-16T14:01:58;5.67;;;2.50;;
17965;SDS011;9108;53.204;10.424;2023-07-16T14:04:25;7.43;;;2.67;;
17965;SDS011;9108;53.204;10.424;2023-07-16T14:06:53;7.53;;;2.60;;
17965;SDS011;9108;53.204;10.424;2023-07-16T14:09:20;5.70;;;2.83;;
17965;SDS011;9108;53.204;10.424;2023-07-16T14:11:47;8.10;;;2.60;;
17965;SDS011;9108;53.204;10.424;2023-07-16T14:14:14;5.78;;;2.72;;
17965;SDS011;9108;53.204;10.424;2023-07-16T14:16:41;7.47;;;2.85;;
17965;SDS011;9108;53.204;10.424;2023-07-16T14:19:10;7.93;;;3.08;;
17965;SDS011;9108;53.204;10.424;2023-07-16T14:21:38;6.18;;;3.00;;
17965;SDS011;9108;53.204;10.424;2023-07-16T14:24:05;6.37;;;2.80;;
17965;SDS011;9108;53.204;10.424;2023-07-16T14:26:32;7.05;;;2.60;;
17965;SDS011;9108;53.204;10.424;2023-07-16T14:28:59;7.25;;;2.67;;
17965;SDS011;9108;53.204;10.424;2023-07-16T14:31:26;8.18;;;3.20;;
17965;SDS011;9108;53.204;10.424;2023-07-16T14:33:53;7.53;;;2.72;;
17965;SDS011;9108;53.204;10.424;2023-07-16T14:36:22;6.88;;;2.80;;
17965;SDS011;9108;53.204;10.424;2023-07-16T14:38:49;7.28;;;2.67;;
17965;SDS011;9108;53.204;10.424;2023-07-16T14:41:16;6.40;;;2.58;;
17965;SDS011;9108;53.204;10.424;2023-07-16T14:43:44;6.30;;;2.80;;
17965;SDS011;9108;53.204;10.424;2023-07-16T14:46:14;8.40;;;2.78;;
17965;SDS011;9108;53.204;10.424;2023-07-16T14:48:41;6.38;;;2.60;;
17965;SDS011;9108;53.204;10.424;2023-07-16T14:51:09;6.97;;;2.80;;